Time;durP1;ratioP1;P1;durP2;ratioP2;P2;SDS_P1;SDS_P2;PMS_P1;PMS_P2;Temp;Humidity;BMP_temperature;BMP_pressure;BME280_temperature;BME280_humidity;BME280_pressure;Samples;Min_cycle;Max_cycle;Signal;HPM_P1;HPM_P2
2021/11/13 00:01:15;;;;;;;60.90;28.90;;;;;;;5.32;93.11;101710.20;1789874;78;21082;-58
2021/11/13 00:03:41;;;;;;;73.22;31.25;;;;;;;5.32;93.36;101720.84;1777004;79;20941;-59
2021/11/13 00:06:09;;;;;;;62.38;29.92;;;;;;;5.34;93.64;101711.09;1815671;77;21452;-60
2021/11/13 00:08:39;;;;;;;62.20;29.32;;;;;;;5.35;93.68;101707.55;1817683;78;21064;-61
2021/11/13 00:11:06;;;;;;;59.77;29.37;;;;;;;5.36;93.76;101705.79;1788595;78;21586;-57
2021/11/13 00:13:33;;;;;;;64.47;27.95;;;;;;;5.35;93.94;101701.36;1784625;77;21513;-61
2021/11/13 00:16:00;;;;;;;65.30;29.57;;;;;;;5.34;94.21;101707.10;1808092;79;21047;-57
2021/11/13 00:18:29;;;;;;;63.08;28.30;;;;;;;5.32;94.19;101702.69;1814075;78;20984;-58
2021/11/13 00:20:56;;;;;;;54.83;28.85;;;;;;;5.27;94.22;101692.03;1798584;78;21737;-61
2021/11/13 00:23:24;;;;;;;60.38;28.40;;;;;;;5.27;94.35;101696.02;1796341;78;21084;-60
2021/11/13 00:25:51;;;;;;;66.57;28.98;;;;;;;5.26;94.50;101700.89;1837460;77;22276;-60
2021/11/13 00:28:20;;;;;;;60.00;28.23;;;;;;;5.24;94.81;101696.02;1808240;79;20981;-57
2021/11/13 00:30:46;;;;;;;68.35;29.80;;;;;;;5.25;94.96;101695.13;1805693;79;21150;-57
2021/11/13 00:33:14;;;;;;;71.90;30.88;;;;;;;5.26;95.07;101704.88;1782711;78;20929;-57
2021/11/13 00:35:41;;;;;;;61.55;27.95;;;;;;;5.23;95.29;101703.55;1805813;79;21386;-57
2021/11/13 00:38:07;;;;;;;64.17;29.95;;;;;;;5.21;95.58;101706.19;1800626;78;21105;-58
2021/11/13 00:40:35;;;;;;;67.20;29.00;;;;;;;5.16;95.72;101703.51;1799329;79;21032;-58
2021/11/13 00:43:02;;;;;;;69.67;31.12;;;;;;;5.10;95.94;101707.48;1779385;78;22259;-61
2021/11/13 00:45:29;;;;;;;61.33;29.77;;;;;;;5.05;96.24;101711.91;1779923;79;21053;-61
2021/11/13 00:47:57;;;;;;;70.20;29.63;;;;;;;4.97;97.02;101709.22;1796443;79;21107;-61
2021/11/13 00:50:24;;;;;;;59.63;29.72;;;;;;;4.97;97.02;101709.22;1792177;79;21560;-56
2021/11/13 00:52:51;;;;;;;66.33;30.32;;;;;;;4.99;97.54;101709.23;1793646;79;21057;-56
2021/11/13 00:55:19;;;;;;;76.47;30.80;;;;;;;5.00;97.95;101712.34;1797013;79;21118;-57
2021/11/13 00:57:47;;;;;;;67.10;29.27;;;;;;;5.02;98.20;101703.92;1784208;79;20985;-58
2021/11/13 01:00:16;;;;;;;60.90;30.72;;;;;;;5.04;98.17;101711.89;1779774;80;21032;-56
2021/11/13 01:02:43;;;;;;;69.58;31.57;;;;;;;5.00;98.05;101700.38;1779780;79;21549;-56
2021/11/13 01:05:12;;;;;;;68.72;31.10;;;;;;;4.94;98.00;101696.34;1801083;79;21530;-56
2021/11/13 01:07:41;;;;;;;73.05;32.17;;;;;;;4.92;97.98;101702.09;1800609;79;20894;-57
2021/11/13 01:10:09;;;;;;;75.03;31.05;;;;;;;4.87;97.99;101703.44;1797957;79;21092;-60
2021/11/13 01:12:37;;;;;;;63.68;29.72;;;;;;;4.75;98.31;101704.23;1796947;78;21048;-60
2021/11/13 01:15:07;;;;;;;70.08;30.30;;;;;;;4.75;98.31;101704.23;1801046;79;21438;-60
2021/11/13 01:17:35;;;;;;;78.07;30.92;;;;;;;4.74;98.58;101705.12;1800576;79;21465;-60
2021/11/13 01:20:06;;;;;;;68.57;31.45;;;;;;;4.71;98.94;101703.36;1799585;79;21016;-60
2021/11/13 01:22:37;;;;;;;75.92;29.25;;;;;;;4.67;98.87;101705.98;1777463;79;20902;-61
2021/11/13 01:25:05;;;;;;;78.67;31.10;;;;;;;4.60;98.89;101709.05;1799320;79;21001;-61
2021/11/13 01:27:33;;;;;;;73.57;31.27;;;;;;;4.51;99.06;101705.89;1801091;79;20937;-60
2021/11/13 01:30:00;;;;;;;76.57;30.27;;;;;;;4.45;99.35;101711.18;1800600;79;21021;-57
2021/11/13 01:32:28;;;;;;;81.12;31.30;;;;;;;4.42;99.95;101708.51;1780746;79;20886;-61
2021/11/13 01:34:55;;;;;;;64.15;29.48;;;;;;;4.42;100.00;101708.51;1798765;79;21060;-60
2021/11/13 01:37:22;;;;;;;73.05;30.55;;;;;;;4.42;100.00;101709.41;1779804;80;21453;-60
2021/11/13 01:39:49;;;;;;;75.45;33.28;;;;;;;4.44;100.00;101706.75;1778905;79;20925;-61
2021/11/13 01:42:17;;;;;;;97.78;38.90;;;;;;;4.40;100.00;101695.66;1810575;78;21012;-60
2021/11/13 01:44:45;;;;;;;80.95;38.45;;;;;;;4.37;100.00;101704.95;1758662;78;20977;-60
2021/11/13 01:47:12;;;;;;;75.85;37.35;;;;;;;4.37;100.00;101704.95;1744370;80;21012;-60
2021/11/13 01:49:39;;;;;;;72.10;32.75;;;;;;;4.39;100.00;101705.84;1750832;79;21481;-60
2021/11/13 01:52:10;;;;;;;89.55;32.03;;;;;;;4.39;100.00;101700.53;1720039;82;21058;-60
2021/11/13 01:54:40;;;;;;;73.10;30.82;;;;;;;4.34;100.00;101700.49;1760724;80;21008;-61
2021/11/13 01:57:12;;;;;;;75.87;29.57;;;;;;;4.32;100.00;101707.56;1754222;81;21158;-61
2021/11/13 01:59:40;;;;;;;54.45;26.35;;;;;;;4.30;100.00;101694.72;1756607;79;21099;-59
2021/11/13 02:02:07;;;;;;;67.20;27.22;;;;;;;4.36;100.00;101701.84;1756817;79;21059;-60
2021/11/13 02:04:35;;;;;;;58.70;26.95;;;;;;;4.43;100.00;101694.35;1747266;80;21075;-60
2021/11/13 02:07:04;;;;;;;58.55;27.00;;;;;;;4.52;100.00;101699.70;1779059;80;21099;-59
2021/11/13 02:09:31;;;;;;;62.00;27.27;;;;;;;4.56;100.00;101701.94;1776173;79;21501;-61
2021/11/13 02:11:59;;;;;;;60.58;28.12;;;;;;;4.54;100.00;101705.94;1782516;80;21088;-60
2021/11/13 02:14:28;;;;;;;63.75;27.42;;;;;;;4.52;100.00;101705.02;1780137;80;21020;-60
2021/11/13 02:16:56;;;;;;;72.53;27.98;;;;;;;4.49;100.00;101711.64;1778596;80;21189;-60
2021/11/13 02:19:23;;;;;;;72.82;29.15;;;;;;;4.46;100.00;101712.08;1760884;79;20960;-60
2021/11/13 02:21:51;;;;;;;60.75;28.38;;;;;;;4.43;100.00;101707.63;1748411;82;21556;-60
2021/11/13 02:24:18;;;;;;;63.02;29.05;;;;;;;4.42;100.00;101708.09;1771932;80;21040;-61
2021/11/13 02:26:44;;;;;;;60.63;27.05;;;;;;;4.39;100.00;101717.33;1773332;79;21122;-61
2021/11/13 02:29:11;;;;;;;66.85;27.95;;;;;;;4.38;100.00;101714.69;1765248;78;21591;-60
2021/11/13 02:31:40;;;;;;;61.98;27.30;;;;;;;4.43;100.00;101728.87;1757851;80;21071;-59
2021/11/13 02:34:08;;;;;;;58.10;28.60;;;;;;;4.50;100.00;101717.40;1779464;80;21121;-60
2021/11/13 02:36:36;;;;;;;69.90;27.00;;;;;;;4.51;100.00;101717.84;1798149;79;20986;-60
2021/11/13 02:39:06;;;;;;;57.17;27.67;;;;;;;4.49;100.00;101712.97;1806960;78;20984;-60
2021/11/13 02:41:34;;;;;;;55.38;26.00;;;;;;;4.46;100.00;101715.61;1812284;79;20992;-59
2021/11/13 02:44:01;;;;;;;59.75;25.68;;;;;;;4.48;100.00;101720.94;1791563;79;21026;-60
2021/11/13 02:46:29;;;;;;;65.97;26.90;;;;;;;4.49;100.00;101719.61;1779854;79;21406;-61
2021/11/13 02:48:56;;;;;;;70.95;27.75;;;;;;;4.48;100.00;101723.14;1783824;78;21016;-59
2021/11/13 02:51:22;;;;;;;54.83;26.85;;;;;;;4.43;100.00;101728.45;1794373;77;21018;-60
2021/11/13 02:53:51;;;;;;;66.35;26.27;;;;;;;4.43;100.00;101728.45;1790876;79;21623;-60
2021/11/13 02:56:18;;;;;;;63.83;26.00;;;;;;;4.46;100.00;101732.00;1811497;78;22423;-59
2021/11/13 02:58:44;;;;;;;58.48;28.73;;;;;;;4.49;100.00;101728.90;1790074;79;21106;-60
2021/11/13 03:01:16;;;;;;;54.40;25.97;;;;;;;4.50;100.00;101730.68;1810253;79;21067;-60
2021/11/13 03:03:49;;;;;;;62.20;27.02;;;;;;;4.42;100.00;101735.06;1782141;78;21008;-59
2021/11/13 03:06:18;;;;;;;65.50;26.62;;;;;;;4.42;100.00;101735.06;1784911;79;20972;-60
2021/11/13 03:08:45;;;;;;;54.00;26.15;;;;;;;4.35;100.00;101730.60;1798200;79;20993;-59
2021/11/13 03:11:14;;;;;;;58.15;25.72;;;;;;;4.32;100.00;101725.28;1811619;79;21936;-59
2021/11/13 03:13:44;;;;;;;54.63;24.75;;;;;;;4.38;100.00;101726.18;1794607;78;21060;-59
2021/11/13 03:16:12;;;;;;;54.23;25.32;;;;;;;4.44;100.00;101726.23;1795565;79;21135;-60
2021/11/13 03:18:39;;;;;;;53.33;26.55;;;;;;;4.56;100.00;101724.09;1796876;79;21398;-60
2021/11/13 03:21:08;;;;;;;63.00;26.60;;;;;;;4.59;100.00;101722.78;1811583;78;21040;-60
2021/11/13 03:23:40;;;;;;;51.60;24.27;;;;;;;4.58;100.00;101714.36;1812026;79;22109;-60
2021/11/13 03:26:19;;;;;;;57.13;23.95;;;;;;;4.61;100.00;101715.26;1809746;78;20937;-60
2021/11/13 03:28:51;;;;;;;52.15;24.85;;;;;;;4.67;100.00;101711.30;1810778;79;21492;-59
2021/11/13 03:31:18;;;;;;;60.50;26.82;;;;;;;4.70;100.00;101720.18;1812076;79;21047;-60
2021/11/13 03:33:45;;;;;;;54.98;24.82;;;;;;;4.67;100.00;101720.59;1811396;79;21052;-60
2021/11/13 03:36:12;;;;;;;50.30;24.20;;;;;;;4.67;100.00;101720.59;1793740;78;21797;-59
2021/11/13 03:38:39;;;;;;;96.75;47.25;;;;;;;4.68;100.00;101731.66;1778054;79;21485;-59
2021/11/13 03:41:06;;;;;;;69.87;27.77;;;;;;;4.55;100.00;101727.63;1793267;79;21041;-60
2021/11/13 03:43:35;;;;;;;59.45;26.77;;;;;;;4.55;100.00;101727.63;1781637;78;21005;-59
2021/11/13 03:46:02;;;;;;;55.70;25.97;;;;;;;4.56;100.00;101737.38;1782654;78;21080;-60
2021/11/13 03:48:28;;;;;;;58.02;26.37;;;;;;;4.54;100.00;101745.78;1781286;79;21132;-60
2021/11/13 03:50:55;;;;;;;62.95;26.65;;;;;;;4.49;100.00;101746.16;1764379;81;20992;-60
2021/11/13 03:53:22;;;;;;;61.60;25.88;;;;;;;4.41;100.00;101743.91;1777778;79;21072;-59
2021/11/13 03:55:50;;;;;;;64.95;25.70;;;;;;;4.15;100.00;101745.48;1827580;77;21079;-59
2021/11/13 03:58:17;;;;;;;60.80;25.90;;;;;;;4.15;100.00;101745.48;1751270;80;21053;-60
2021/11/13 04:00:43;;;;;;;51.65;24.92;;;;;;;4.05;100.00;101756.02;1734650;81;21475;-59
2021/11/13 04:03:10;;;;;;;66.55;26.42;;;;;;;3.82;100.00;101762.02;1750785;81;21095;-60
2021/11/13 04:05:38;;;;;;;54.50;25.95;;;;;;;3.82;100.00;101762.02;1744766;80;21044;-60
2021/11/13 04:08:05;;;;;;;52.38;25.40;;;;;;;3.78;100.00;101763.77;1753395;81;21012;-60
2021/11/13 04:10:33;;;;;;;54.03;24.80;;;;;;;3.77;100.00;101759.77;1742973;81;21397;-60
2021/11/13 04:12:59;;;;;;;52.33;23.65;;;;;;;3.79;100.00;101754.94;1728751;81;21834;-60
2021/11/13 04:15:28;;;;;;;49.93;25.43;;;;;;;3.83;100.00;101758.48;1751418;80;21012;-59
2021/11/13 04:17:55;;;;;;;54.60;24.77;;;;;;;3.89;100.00;101758.98;1736184;81;21587;-60
2021/11/13 04:20:22;;;;;;;59.75;30.52;;;;;;;3.96;100.00;101760.39;1723264;81;21416;-60
2021/11/13 04:22:50;;;;;;;65.25;28.83;;;;;;;4.04;100.00;101759.55;1729375;80;21047;-60
2021/11/13 04:25:17;;;;;;;52.05;26.62;;;;;;;4.10;100.00;101760.50;1772501;79;21695;-60
2021/11/13 04:27:47;;;;;;;50.92;26.12;;;;;;;4.15;100.00;101766.73;1797118;79;20965;-60
2021/11/13 04:30:14;;;;;;;53.98;25.85;;;;;;;4.09;100.00;101771.09;1803021;78;21004;-61
2021/11/13 04:32:43;;;;;;;71.47;29.40;;;;;;;4.09;100.00;101771.09;1799326;78;21024;-60
2021/11/13 04:37:51;;;;;;;52.45;23.80;;;;;;;3.97;100.00;101770.13;1811456;78;21943;-61
2021/11/13 04:40:21;;;;;;;53.80;25.27;;;;;;;3.98;100.00;101767.92;1802739;79;21295;-60
2021/11/13 04:42:48;;;;;;;78.28;32.03;;;;;;;3.97;100.00;101772.78;1814979;77;21083;-59
2021/11/13 04:45:14;;;;;;;57.20;24.15;;;;;;;4.06;100.00;101776.37;1803001;77;21375;-59
2021/11/13 04:47:43;;;;;;;51.37;24.67;;;;;;;4.16;100.00;101771.61;1783497;79;21461;-61
2021/11/13 04:50:14;;;;;;;48.68;24.92;;;;;;;4.20;100.00;101769.42;1773084;79;21117;-60
2021/11/13 04:52:40;;;;;;;53.38;24.80;;;;;;;4.24;100.00;101778.31;1812179;77;21440;-60
2021/11/13 04:55:08;;;;;;;49.15;24.32;;;;;;;4.29;100.00;101774.80;1827750;77;21556;-60
2021/11/13 04:57:35;;;;;;;63.90;27.13;;;;;;;4.35;100.00;101775.74;1789557;79;21044;-61
2021/11/13 05:00:07;;;;;;;57.00;25.72;;;;;;;4.38;100.00;101775.77;1799011;78;21048;-60
2021/11/13 05:02:34;;;;;;;53.15;24.27;;;;;;;4.42;100.00;101770.91;1787688;77;21363;-61
2021/11/13 05:05:00;;;;;;;53.87;26.33;;;;;;;4.46;100.00;101774.49;1779290;80;21032;-61
2021/11/13 05:07:28;;;;;;;58.70;26.05;;;;;;;4.49;100.00;101768.73;1779660;79;21064;-62
2021/11/13 05:09:56;;;;;;;60.20;26.10;;;;;;;4.52;100.00;101772.73;1802274;79;20996;-60
2021/11/13 05:12:23;;;;;;;49.75;26.12;;;;;;;4.56;100.00;101773.23;1805023;77;21075;-60
2021/11/13 05:14:51;;;;;;;52.27;27.00;;;;;;;4.63;100.00;101771.48;1811489;79;21885;-60
2021/11/13 05:17:20;;;;;;;59.13;25.72;;;;;;;4.77;100.00;101764.95;1791554;79;21092;-60
2021/11/13 05:19:47;;;;;;;57.73;27.25;;;;;;;4.91;100.00;101763.69;1783405;79;21079;-60
2021/11/13 05:22:15;;;;;;;50.88;26.65;;;;;;;5.01;100.00;101767.27;1831031;77;21017;-59
2021/11/13 05:24:42;;;;;;;52.35;24.37;;;;;;;5.06;100.00;101770.84;1813753;77;21436;-61
2021/11/13 05:27:10;;;;;;;54.05;26.87;;;;;;;5.10;100.00;101775.28;1811460;79;20937;-61
2021/11/13 05:29:39;;;;;;;56.85;26.30;;;;;;;5.15;100.00;101781.49;1811154;79;21021;-61
2021/11/13 05:32:07;;;;;;;48.75;25.48;;;;;;;5.15;100.00;101781.49;1795533;79;21433;-60
2021/11/13 05:34:34;;;;;;;61.65;27.17;;;;;;;5.19;100.00;101784.16;1809092;79;21017;-61
2021/11/13 05:37:00;;;;;;;55.12;27.85;;;;;;;5.25;100.00;101793.52;1812127;78;21072;-60
2021/11/13 05:39:28;;;;;;;55.73;25.37;;;;;;;5.31;100.00;101794.86;1803108;79;21142;-61
2021/11/13 05:41:56;;;;;;;52.23;26.85;;;;;;;5.37;100.00;101797.53;1788144;79;21099;-61
2021/11/13 05:44:24;;;;;;;52.60;27.20;;;;;;;5.42;100.00;101809.10;1810825;79;21496;-61
2021/11/13 05:46:54;;;;;;;58.78;28.15;;;;;;;5.49;100.00;101812.64;1810964;77;21594;-60
2021/11/13 05:49:22;;;;;;;55.05;27.62;;;;;;;5.57;100.00;101807.35;1806875;79;21257;-60
2021/11/13 05:51:52;;;;;;;48.78;26.65;;;;;;;5.64;100.00;101815.81;1780033;80;21508;-59
2021/11/13 05:54:19;;;;;;;56.35;27.42;;;;;;;5.69;100.00;101820.70;1804171;78;21056;-60
2021/11/13 05:56:45;;;;;;;51.98;26.77;;;;;;;5.72;100.00;101823.37;1808750;79;21063;-60
2021/11/13 05:59:13;;;;;;;55.43;27.35;;;;;;;5.73;100.00;101819.82;1794599;79;21035;-60
2021/11/13 06:01:41;;;;;;;48.70;26.65;;;;;;;5.83;100.00;101825.15;1782714;79;21129;-61
2021/11/13 06:04:10;;;;;;;57.78;28.55;;;;;;;5.90;100.00;101826.96;1780063;79;21036;-60
2021/11/13 06:06:38;;;;;;;50.30;27.55;;;;;;;5.99;100.00;101827.42;1781811;79;21075;-61
2021/11/13 06:09:04;;;;;;;53.20;27.45;;;;;;;6.08;100.00;101825.22;1800871;78;21438;-61
2021/11/13 06:11:31;;;;;;;54.80;27.85;;;;;;;6.16;100.00;101832.79;1780570;80;21032;-60
2021/11/13 06:13:58;;;;;;;55.75;28.75;;;;;;;6.26;100.00;101831.89;1789323;79;21095;-60
2021/11/13 06:16:25;;;;;;;57.78;28.15;;;;;;;6.37;100.00;101839.02;1802179;78;21227;-60
2021/11/13 06:18:52;;;;;;;57.93;28.52;;;;;;;6.44;100.00;101832.78;1787171;79;21001;-61
2021/11/13 06:21:20;;;;;;;58.05;29.55;;;;;;;6.50;100.00;101836.77;1794683;77;20984;-60
2021/11/13 06:23:48;;;;;;;66.87;28.32;;;;;;;6.55;100.00;101840.34;1779478;79;20990;-60
2021/11/13 06:26:14;;;;;;;57.05;28.17;;;;;;;6.66;100.00;101839.43;1778818;79;21496;-60
2021/11/13 06:28:41;;;;;;;50.33;25.48;;;;;;;6.75;100.00;101840.77;1786548;79;21473;-60
2021/11/13 06:31:08;;;;;;;53.25;25.85;;;;;;;6.86;100.00;101840.29;1797379;79;21008;-60
2021/11/13 06:33:37;;;;;;;54.33;24.80;;;;;;;6.98;100.00;101845.17;1783572;79;21029;-62
2021/11/13 06:36:05;;;;;;;44.80;23.25;;;;;;;7.11;100.00;101849.55;1778635;79;21491;-60
2021/11/13 06:38:33;;;;;;;43.10;22.98;;;;;;;7.27;100.00;101850.85;1813323;77;20936;-60
2021/11/13 06:41:00;;;;;;;45.38;23.47;;;;;;;7.41;100.00;101853.03;1821774;78;21113;-61
2021/11/13 06:43:27;;;;;;;43.15;23.73;;;;;;;7.55;100.00;101850.73;1789481;78;21040;-61
2021/11/13 06:45:54;;;;;;;51.35;24.85;;;;;;;7.68;100.00;101858.23;1818802;78;21436;-60
2021/11/13 06:48:21;;;;;;;51.13;24.55;;;;;;;7.80;100.00;101851.50;1807772;78;21467;-61
2021/11/13 06:50:48;;;;;;;45.65;24.98;;;;;;;7.93;100.00;101852.31;1822374;78;21008;-58
2021/11/13 06:53:15;;;;;;;45.80;23.80;;;;;;;8.08;100.00;101853.13;1822378;78;21120;-58
2021/11/13 06:55:42;;;;;;;51.77;23.83;;;;;;;8.24;100.00;101860.10;1822375;77;21027;-57
2021/11/13 06:58:09;;;;;;;47.08;23.52;;;;;;;8.41;100.00;101861.33;1834515;77;21080;-57
2021/11/13 07:00:35;;;;;;;42.43;23.10;;;;;;;8.55;100.00;101854.56;1822995;78;20917;-57
2021/11/13 07:03:02;;;;;;;41.48;20.72;;;;;;;8.68;100.00;101858.00;1817062;78;21067;-57
2021/11/13 07:05:31;;;;;;;46.55;21.35;;;;;;;8.84;100.00;101860.51;1821353;78;21019;-58
2021/11/13 07:07:58;;;;;;;36.15;20.12;;;;;;;9.00;100.00;101857.25;1798494;77;21115;-58
2021/11/13 07:10:27;;;;;;;37.80;20.92;;;;;;;9.20;100.00;101859.69;1808982;78;21051;-58
2021/11/13 07:12:57;;;;;;;37.50;19.92;;;;;;;9.42;100.00;101858.09;1812678;78;21090;-58
2021/11/13 07:15:26;;;;;;;37.38;16.93;;;;;;;9.64;100.00;101853.37;1820567;77;21059;-58
2021/11/13 07:17:52;;;;;;;33.50;16.37;;;;;;;9.81;100.00;101842.85;1797466;78;21133;-58
2021/11/13 07:20:19;;;;;;;30.23;15.08;;;;;;;9.90;100.00;101853.45;1808061;78;21062;-58
2021/11/13 07:22:46;;;;;;;29.77;15.35;;;;;;;9.99;100.00;101849.76;1798566;78;21624;-58
2021/11/13 07:25:14;;;;;;;30.65;16.77;;;;;;;10.09;100.00;101850.03;1792016;78;21063;-58
2021/11/13 07:27:44;;;;;;;26.60;14.98;;;;;;;10.19;100.00;101852.12;1822305;78;21060;-59
2021/11/13 07:30:16;;;;;;;28.77;15.20;;;;;;;10.31;100.00;101858.64;1815262;78;21116;-59
2021/11/13 07:32:43;;;;;;;26.70;15.15;;;;;;;10.45;100.00;101857.09;1814748;78;21009;-60
2021/11/13 07:35:11;;;;;;;28.67;16.10;;;;;;;10.57;99.15;101854.66;1811374;77;20999;-59
2021/11/13 07:37:38;;;;;;;28.32;15.55;;;;;;;10.66;98.22;101860.77;1801821;78;21087;-59
2021/11/13 07:40:07;;;;;;;40.10;17.20;;;;;;;10.72;97.23;101860.20;1804163;78;21071;-58
2021/11/13 07:42:34;;;;;;;29.75;16.15;;;;;;;10.79;96.67;101858.30;1803902;78;21156;-58
2021/11/13 07:45:06;;;;;;;32.40;17.15;;;;;;;10.88;96.49;101858.13;1810165;77;21059;-59
2021/11/13 07:47:31;;;;;;;27.93;17.07;;;;;;;11.00;95.75;101860.16;1810370;78;21489;-57
2021/11/13 07:50:00;;;;;;;33.45;17.77;;;;;;;11.08;94.76;101871.63;1807091;78;21138;-58
2021/11/13 07:52:28;;;;;;;29.37;17.20;;;;;;;11.08;93.99;101863.58;1810199;78;21603;-57
2021/11/13 07:54:55;;;;;;;32.55;18.40;;;;;;;11.08;93.67;101866.26;1805777;77;21945;-59
2021/11/13 07:57:21;;;;;;;39.27;18.60;;;;;;;11.10;93.29;101871.14;1796964;78;21052;-58
2021/11/13 07:59:48;;;;;;;32.48;18.40;;;;;;;11.07;93.00;101872.54;1797122;78;21040;-61
2021/11/13 08:02:15;;;;;;;35.28;18.60;;;;;;;11.09;93.05;101873.87;1798893;78;22514;-61
2021/11/13 08:04:42;;;;;;;28.12;17.82;;;;;;;11.14;93.19;101880.02;1795221;77;21127;-61
2021/11/13 08:07:08;;;;;;;31.55;17.80;;;;;;;11.26;92.91;101892.32;1796397;78;21114;-61
2021/11/13 08:09:35;;;;;;;34.15;18.60;;;;;;;11.30;91.73;101884.63;1799733;78;20961;-61
2021/11/13 08:12:02;;;;;;;35.50;19.27;;;;;;;11.26;91.44;101883.80;1796897;78;21083;-60
2021/11/13 08:14:29;;;;;;;40.08;19.20;;;;;;;11.28;91.75;101887.80;1797333;78;21063;-58
2021/11/13 08:16:58;;;;;;;35.23;19.00;;;;;;;11.33;91.36;101884.56;1801215;77;21118;-61
2021/11/13 08:19:24;;;;;;;35.80;19.20;;;;;;;11.32;90.72;101884.14;1800464;77;21111;-58
2021/11/13 08:21:51;;;;;;;34.85;18.92;;;;;;;11.29;90.45;101890.91;1801501;77;21423;-58
2021/11/13 08:24:20;;;;;;;35.08;18.65;;;;;;;11.24;90.45;101888.31;1799272;77;21104;-61
2021/11/13 08:26:48;;;;;;;34.30;18.67;;;;;;;11.25;90.92;101895.45;1799834;77;21107;-61
2021/11/13 08:29:15;;;;;;;32.93;19.07;;;;;;;11.24;90.26;101896.36;1797880;77;21145;-62
2021/11/13 08:31:42;;;;;;;36.50;18.70;;;;;;;11.21;90.34;101902.27;1797919;77;21904;-61
2021/11/13 08:34:10;;;;;;;34.20;18.77;;;;;;;11.21;90.81;101902.27;1769728;77;21121;-61
2021/11/13 08:36:39;;;;;;;31.27;18.65;;;;;;;11.23;90.37;101902.65;1801622;77;21443;-61
2021/11/13 08:39:07;;;;;;;34.33;18.75;;;;;;;11.17;89.96;101894.28;1787236;78;21115;-62
2021/11/13 08:41:34;;;;;;;31.93;17.05;;;;;;;11.12;90.11;101896.62;1788187;78;21322;-61
2021/11/13 08:44:02;;;;;;;38.48;20.60;;;;;;;11.09;89.93;101902.91;1785823;78;21103;-60
2021/11/13 08:46:30;;;;;;;35.68;19.48;;;;;;;11.05;90.06;101893.16;1792687;78;21614;-61
2021/11/13 08:48:58;;;;;;;32.23;18.92;;;;;;;11.08;90.50;101894.91;1788982;78;21120;-62
2021/11/13 08:51:25;;;;;;;31.15;18.20;;;;;;;11.12;90.51;101898.83;1789364;77;21076;-61
2021/11/13 08:53:54;;;;;;;35.70;18.57;;;;;;;11.18;90.33;101902.77;1789884;78;21443;-62
2021/11/13 08:56:24;;;;;;;32.90;18.52;;;;;;;11.23;89.92;101899.97;1788316;78;21141;-61
2021/11/13 08:58:54;;;;;;;30.62;18.45;;;;;;;11.21;89.81;101897.77;1785642;78;21028;-61
2021/11/13 09:01:23;;;;;;;31.33;19.45;;;;;;;11.23;89.43;101903.99;1725848;82;21072;-62
2021/11/13 09:03:51;;;;;;;36.30;19.80;;;;;;;11.16;89.16;101900.57;1753741;80;21135;-60
2021/11/13 09:06:22;;;;;;;31.77;18.17;;;;;;;11.13;89.52;101896.57;1731600;81;21033;-61
2021/11/13 09:08:50;;;;;;;30.45;18.12;;;;;;;11.14;89.50;101905.05;1749581;80;21141;-60
2021/11/13 09:11:21;;;;;;;32.75;18.65;;;;;;;11.08;89.25;101902.49;1753783;80;21818;-61
2021/11/13 09:13:49;;;;;;;30.72;17.85;;;;;;;11.01;89.27;101904.87;1751779;80;21061;-62
2021/11/13 09:16:16;;;;;;;31.05;19.10;;;;;;;10.98;89.86;101907.14;1724604;80;21021;-61
2021/11/13 09:18:46;;;;;;;34.38;19.48;;;;;;;11.01;89.93;101902.19;1755664;79;21111;-61
2021/11/13 09:21:13;;;;;;;29.45;18.50;;;;;;;11.03;89.71;101894.98;1747309;80;21236;-60
2021/11/13 09:23:41;;;;;;;31.87;17.75;;;;;;;11.06;89.68;101902.98;1721642;80;21525;-61
2021/11/13 09:26:10;;;;;;;32.08;18.60;;;;;;;11.03;89.23;101903.04;1751453;80;21678;-60
2021/11/13 09:28:36;;;;;;;29.77;18.70;;;;;;;10.92;89.28;101894.28;1728436;81;21489;-61
2021/11/13 09:31:03;;;;;;;36.73;19.23;;;;;;;10.82;89.81;101885.07;1750306;80;21068;-62
2021/11/13 09:33:32;;;;;;;34.75;19.12;;;;;;;10.73;90.24;101885.25;1747941;80;23146;-61
2021/11/13 09:35:59;;;;;;;34.00;17.75;;;;;;;10.67;91.18;101886.67;1747950;80;21065;-62
2021/11/13 09:38:28;;;;;;;32.98;18.37;;;;;;;10.70;91.54;101887.95;1749689;80;21164;-62
2021/11/13 09:40:57;;;;;;;30.65;18.10;;;;;;;10.69;91.25;101875.45;1751511;79;21627;-61
2021/11/13 09:43:28;;;;;;;29.52;16.50;;;;;;;10.67;91.29;101883.99;1747406;80;21569;-61
2021/11/13 09:45:58;;;;;;;30.08;17.82;;;;;;;10.62;91.59;101883.19;1762672;80;21699;-61
2021/11/13 09:48:24;;;;;;;32.17;18.37;;;;;;;10.62;91.78;101879.17;1758608;79;20957;-60
2021/11/13 09:50:52;;;;;;;33.88;18.23;;;;;;;10.67;92.09;101883.99;1789781;77;21080;-61
2021/11/13 09:53:21;;;;;;;28.92;16.48;;;;;;;10.76;91.97;101886.53;1783372;79;21269;-61
2021/11/13 09:55:49;;;;;;;30.88;16.87;;;;;;;10.82;91.50;101887.76;1780934;79;21439;-62
2021/11/13 09:58:16;;;;;;;32.17;17.10;;;;;;;10.85;90.99;101897.09;1787745;79;21047;-62
2021/11/13 10:00:42;;;;;;;30.92;17.77;;;;;;;10.87;90.80;101886.34;1785793;78;21096;-61
2021/11/13 10:03:10;;;;;;;30.23;16.70;;;;;;;10.86;90.75;101883.23;1787202;78;21033;-62
2021/11/13 10:05:37;;;;;;;32.38;17.30;;;;;;;10.92;90.81;101888.92;1786374;79;21048;-61
2021/11/13 10:08:05;;;;;;;33.92;17.27;;;;;;;10.96;90.12;101887.97;1788730;77;21048;-61
2021/11/13 10:10:38;;;;;;;27.10;16.82;;;;;;;10.97;89.95;101883.91;1787526;79;21542;-61
2021/11/13 10:13:31;;;;;;;23.05;14.45;;;;;;;10.97;89.63;101896.45;1788334;78;21104;-61
2021/11/13 10:16:06;;;;;;;29.30;16.35;;;;;;;10.88;89.43;101888.98;1781308;79;21440;-61
2021/11/13 10:18:42;;;;;;;29.60;18.12;;;;;;;10.82;89.72;101890.87;1788812;78;21067;-61
2021/11/13 10:21:17;;;;;;;32.35;17.48;;;;;;;10.73;90.44;101887.93;1784095;78;21040;-61
2021/11/13 10:24:08;;;;;;;30.77;17.77;;;;;;;10.77;90.65;101892.33;1786163;78;21111;-61
2021/11/13 10:26:44;;;;;;;38.17;18.52;;;;;;;10.75;90.23;101891.47;1740956;78;20989;-61
2021/11/13 10:29:18;;;;;;;30.85;19.12;;;;;;;10.72;90.25;101892.84;1790083;77;21125;-61
2021/11/13 10:31:55;;;;;;;32.25;18.12;;;;;;;10.76;90.58;101898.61;1781761;79;20992;-61
2021/11/13 10:34:34;;;;;;;36.38;18.27;;;;;;;10.79;90.31;101885.13;1785756;78;21544;-61
2021/11/13 10:37:04;;;;;;;33.23;19.00;;;;;;;10.85;90.29;101893.54;1785448;77;21107;-61
2021/11/13 10:39:37;;;;;;;33.25;19.05;;;;;;;10.83;90.09;101893.55;1787844;78;20997;-61
2021/11/13 10:42:19;;;;;;;31.35;19.02;;;;;;;10.79;90.22;101886.48;1795083;77;20984;-61
2021/11/13 10:44:50;;;;;;;31.23;18.80;;;;;;;10.79;90.45;101894.52;1790755;78;21157;-62
2021/11/13 10:47:25;;;;;;;30.70;18.32;;;;;;;10.79;90.12;101887.81;1795046;77;21069;-61
2021/11/13 10:49:53;;;;;;;30.37;17.40;;;;;;;10.77;89.99;101884.28;1795245;78;21154;-61
2021/11/13 10:52:20;;;;;;;37.33;20.37;;;;;;;10.71;89.93;101886.61;1790695;78;21087;-62
2021/11/13 10:54:50;;;;;;;28.05;18.35;;;;;;;10.65;90.22;101880.45;1797057;78;21608;-61
2021/11/13 10:57:27;;;;;;;30.30;18.48;;;;;;;10.64;90.68;101894.78;1798779;77;21040;-61
2021/11/13 10:59:53;;;;;;;35.83;20.48;;;;;;;10.63;90.42;101893.00;1764276;79;21072;-61
2021/11/13 11:02:22;;;;;;;34.63;19.17;;;;;;;10.64;90.92;101884.05;1793110;78;21127;-61
2021/11/13 11:04:49;;;;;;;36.40;20.75;;;;;;;10.68;90.95;101884.42;1791178;77;21027;-61
2021/11/13 11:07:24;;;;;;;35.78;21.35;;;;;;;10.71;91.09;101873.19;1797038;77;21441;-61
2021/11/13 11:10:08;;;;;;;34.60;18.75;;;;;;;10.79;90.97;101879.77;1789451;78;21518;-61
2021/11/13 11:12:38;;;;;;;32.25;19.70;;;;;;;10.84;90.52;101881.03;1799903;78;21719;-61
2021/11/13 11:15:12;;;;;;;34.50;20.10;;;;;;;10.85;90.11;101885.48;1787490;79;21790;-60
2021/11/13 11:17:45;;;;;;;39.78;20.43;;;;;;;10.82;89.93;101882.83;1782866;79;20999;-61